Time;durP1;ratioP1;P1;durP2;ratioP2;P2;SDS_P1;SDS_P2;PMS_P1;PMS_P2;Temp;Humidity;BMP_temperature;BMP_pressure;BME280_temperature;BME280_humidity;BME280_pressure;Samples;Min_cycle;Max_cycle;Signal;HPM_P1;HPM_P2
2023/08/12 00:00:30;;;;;;;6.57;3.50;;;21.80;99.90;;;;;;5022970;28;20049;-68
2023/08/12 00:02:55;;;;;;;10.57;3.90;;;21.70;99.90;;;;;;5024383;28;20026;-69
2023/08/12 00:05:21;;;;;;;10.18;3.35;;;21.70;99.90;;;;;;5017874;28;20151;-69
2023/08/12 00:07:48;;;;;;;6.28;3.83;;;21.70;99.90;;;;;;5021514;28;20041;-69
2023/08/12 00:10:14;;;;;;;6.28;4.00;;;21.60;99.90;;;;;;5021590;28;20025;-68
2023/08/12 00:12:40;;;;;;;6.60;4.07;;;21.60;99.90;;;;;;5016777;28;20036;-69
2023/08/12 00:15:08;;;;;;;5.72;3.88;;;21.60;99.90;;;;;;5021913;28;20111;-69
2023/08/12 00:17:35;;;;;;;6.60;3.75;;;21.60;99.90;;;;;;5019966;28;20021;-69
2023/08/12 00:20:05;;;;;;;6.10;3.95;;;21.50;99.90;;;;;;5021164;28;20026;-68
2023/08/12 00:22:31;;;;;;;11.35;4.25;;;21.50;99.90;;;;;;5026663;28;20021;-69
2023/08/12 00:24:56;;;;;;;6.80;3.65;;;21.50;99.90;;;;;;4998899;28;20025;-69
2023/08/12 00:27:22;;;;;;;6.00;3.40;;;21.50;99.90;;;;;;5023945;28;20025;-69
2023/08/12 00:29:48;;;;;;;5.13;3.85;;;21.50;99.90;;;;;;5022110;28;20035;-69
2023/08/12 00:32:14;;;;;;;6.18;3.90;;;21.40;99.90;;;;;;5006811;28;20041;-69
2023/08/12 00:34:39;;;;;;;6.30;3.55;;;21.40;99.90;;;;;;5000275;28;20029;-68
2023/08/12 00:37:05;;;;;;;4.75;3.40;;;21.40;99.90;;;;;;5001779;28;20036;-69
2023/08/12 00:39:30;;;;;;;7.57;3.78;;;21.30;99.90;;;;;;5024048;28;20163;-69
2023/08/12 00:41:56;;;;;;;7.72;3.53;;;21.40;99.90;;;;;;5018521;28;20145;-69
2023/08/12 00:44:22;;;;;;;7.75;3.50;;;21.40;99.90;;;;;;5003519;28;20032;-68
2023/08/12 00:46:48;;;;;;;7.70;3.88;;;21.30;99.90;;;;;;5020302;28;20017;-68
2023/08/12 00:49:15;;;;;;;7.35;3.45;;;21.20;99.90;;;;;;5022056;28;20054;-68
2023/08/12 00:51:42;;;;;;;6.82;3.67;;;21.20;99.90;;;;;;5003775;28;20037;-68
2023/08/12 00:54:13;;;;;;;7.93;3.35;;;21.20;99.90;;;;;;5022042;28;20640;-68
2023/08/12 00:56:39;;;;;;;4.43;3.53;;;21.20;99.90;;;;;;5021800;28;20025;-68
2023/08/12 00:59:06;;;;;;;5.78;3.45;;;21.20;99.90;;;;;;5022491;28;20029;-69
2023/08/12 01:01:33;;;;;;;7.22;3.50;;;21.10;99.90;;;;;;5019149;28;20048;-68
2023/08/12 01:03:59;;;;;;;6.00;3.40;;;21.10;99.90;;;;;;5018586;28;20018;-68
2023/08/12 01:06:25;;;;;;;7.75;4.35;;;21.10;99.90;;;;;;5014903;28;20083;-69
2023/08/12 01:08:51;;;;;;;6.75;3.53;;;21.10;99.90;;;;;;5004941;28;20519;-68
2023/08/12 01:11:27;;;;;;;7.32;3.20;;;21.00;99.90;;;;;;5023414;28;20053;-69
2023/08/12 01:14:03;;;;;;;7.32;3.83;;;21.00;99.90;;;;;;5023871;28;20029;-68
2023/08/12 01:16:33;;;;;;;5.85;3.25;;;21.00;99.90;;;;;;5015892;28;20121;-68
2023/08/12 01:19:01;;;;;;;5.93;3.75;;;21.00;99.90;;;;;;5022024;28;20018;-68
2023/08/12 01:21:29;;;;;;;7.50;3.65;;;21.00;99.90;;;;;;4996408;28;20025;-69
2023/08/12 01:23:55;;;;;;;6.53;3.28;;;20.90;99.90;;;;;;5015458;28;20025;-68
2023/08/12 01:26:21;;;;;;;9.13;3.33;;;20.90;99.90;;;;;;5018075;28;20844;-69
2023/08/12 01:28:47;;;;;;;4.85;3.28;;;20.90;99.90;;;;;;5022830;28;20392;-69
2023/08/12 01:31:27;;;;;;;5.40;3.08;;;20.90;99.90;;;;;;5022524;28;20107;-68
2023/08/12 01:34:07;;;;;;;7.65;3.63;;;20.80;99.90;;;;;;5022563;28;20044;-68
2023/08/12 01:36:36;;;;;;;3.72;3.05;;;20.80;99.90;;;;;;5001582;28;20479;-69
2023/08/12 01:39:04;;;;;;;5.65;3.20;;;20.80;99.90;;;;;;5022694;28;20026;-68
2023/08/12 01:41:30;;;;;;;5.47;3.20;;;20.80;99.90;;;;;;5018728;28;20026;-68
2023/08/12 01:43:56;;;;;;;10.43;3.72;;;20.70;99.90;;;;;;5019768;28;20033;-68
2023/08/12 01:46:22;;;;;;;4.30;3.40;;;20.80;99.90;;;;;;5026322;28;20033;-68
2023/08/12 01:48:47;;;;;;;8.55;3.55;;;20.70;99.90;;;;;;5020823;28;20060;-68
2023/08/12 01:51:13;;;;;;;6.72;3.35;;;20.70;99.90;;;;;;5026137;28;20495;-68
2023/08/12 01:53:39;;;;;;;8.88;3.40;;;20.70;99.90;;;;;;5021880;28;20472;-68
2023/08/12 01:56:04;;;;;;;9.15;3.25;;;20.70;99.90;;;;;;5025106;28;20061;-68
2023/08/12 01:58:30;;;;;;;4.78;3.55;;;20.70;99.90;;;;;;5025050;28;20483;-68
2023/08/12 02:00:56;;;;;;;4.78;3.28;;;20.60;99.90;;;;;;5026457;28;20025;-68
2023/08/12 02:03:21;;;;;;;7.85;3.67;;;20.60;99.90;;;;;;5026229;28;20032;-68
2023/08/12 02:05:47;;;;;;;3.95;3.33;;;20.70;99.90;;;;;;5027598;28;20037;-68
2023/08/12 02:08:13;;;;;;;4.97;3.65;;;20.60;99.90;;;;;;5019387;28;20040;-68
2023/08/12 02:10:39;;;;;;;5.93;3.65;;;20.70;99.90;;;;;;5024064;28;20030;-68
2023/08/12 02:13:05;;;;;;;6.45;3.10;;;20.70;99.90;;;;;;5005790;28;20025;-73
2023/08/12 02:15:30;;;;;;;5.55;3.50;;;20.70;99.90;;;;;;5024448;28;20033;-72
2023/08/12 02:17:56;;;;;;;5.90;3.33;;;20.70;99.90;;;;;;5021607;28;20021;-73
2023/08/12 02:20:22;;;;;;;5.28;3.10;;;20.70;99.90;;;;;;5022077;28;20040;-73
2023/08/12 02:22:47;;;;;;;6.30;3.50;;;20.70;99.90;;;;;;5007418;28;20033;-73
2023/08/12 02:25:13;;;;;;;7.05;3.60;;;20.70;99.90;;;;;;5025549;28;20528;-73
2023/08/12 02:27:38;;;;;;;4.43;3.03;;;20.60;99.90;;;;;;5023417;28;20029;-72
2023/08/12 02:30:05;;;;;;;6.38;3.67;;;20.60;99.90;;;;;;5021251;28;20056;-72
2023/08/12 02:32:30;;;;;;;4.53;3.50;;;20.60;99.90;;;;;;5026855;28;20029;-72
2023/08/12 02:34:56;;;;;;;6.70;3.30;;;20.60;99.90;;;;;;5026263;28;20025;-72
2023/08/12 02:37:21;;;;;;;4.22;3.55;;;20.60;99.90;;;;;;5026169;28;20079;-72
2023/08/12 02:39:47;;;;;;;5.63;3.30;;;20.60;99.90;;;;;;5010786;28;20040;-72
2023/08/12 02:42:13;;;;;;;8.30;3.47;;;20.60;99.90;;;;;;5018652;28;20030;-72
2023/08/12 02:44:38;;;;;;;5.95;3.90;;;20.60;99.90;;;;;;5024436;28;20172;-72
2023/08/12 02:47:04;;;;;;;9.02;4.30;;;20.60;99.90;;;;;;5027970;28;20025;-72
2023/08/12 02:49:32;;;;;;;5.72;4.10;;;20.50;99.90;;;;;;5007433;28;20546;-72
2023/08/12 02:51:58;;;;;;;5.97;4.68;;;20.50;99.90;;;;;;5026286;28;20432;-72
2023/08/12 02:54:23;;;;;;;5.47;3.83;;;20.50;99.90;;;;;;5008157;28;20140;-72
2023/08/12 02:56:50;;;;;;;6.38;3.88;;;20.40;99.90;;;;;;5008178;28;20038;-72
2023/08/12 02:59:16;;;;;;;6.38;3.95;;;20.40;99.90;;;;;;5028347;28;20167;-72
2023/08/12 03:01:44;;;;;;;5.65;3.38;;;20.40;99.90;;;;;;5023369;28;20436;-72
2023/08/12 03:04:10;;;;;;;6.60;3.55;;;20.40;99.90;;;;;;5010057;28;20033;-72
2023/08/12 03:06:36;;;;;;;3.75;3.20;;;20.40;99.90;;;;;;5020136;28;20022;-72
2023/08/12 03:09:02;;;;;;;11.20;4.43;;;20.40;99.90;;;;;;5023445;28;20156;-72
2023/08/12 03:11:28;;;;;;;6.85;4.10;;;20.40;99.90;;;;;;5025392;28;20022;-72
2023/08/12 03:13:53;;;;;;;4.93;3.83;;;20.40;99.90;;;;;;5008650;28;20041;-72
2023/08/12 03:16:19;;;;;;;5.45;4.10;;;20.40;99.90;;;;;;5022944;28;20480;-72
2023/08/12 03:18:45;;;;;;;7.28;4.35;;;20.40;99.90;;;;;;5025342;28;20042;-72
2023/08/12 03:21:10;;;;;;;7.22;3.50;;;20.40;99.90;;;;;;5026267;28;20056;-72
2023/08/12 03:23:37;;;;;;;4.63;3.47;;;20.30;99.90;;;;;;5025720;28;20044;-72
2023/08/12 03:26:03;;;;;;;6.88;3.25;;;20.40;99.90;;;;;;5025262;28;20026;-72
2023/08/12 03:28:28;;;;;;;5.50;3.15;;;20.40;99.90;;;;;;5025053;28;20025;-72
2023/08/12 03:30:54;;;;;;;8.05;4.45;;;20.40;99.90;;;;;;5023961;28;20032;-72
2023/08/12 03:33:20;;;;;;;6.10;3.70;;;20.40;99.90;;;;;;5025691;28;20399;-72
2023/08/12 03:35:46;;;;;;;5.82;4.25;;;20.40;99.90;;;;;;5020693;28;20526;-72
2023/08/12 03:38:12;;;;;;;6.82;4.78;;;20.40;99.90;;;;;;5028736;28;20036;-72
2023/08/12 03:40:38;;;;;;;8.63;4.47;;;20.40;99.90;;;;;;5021329;28;20316;-72
2023/08/12 03:43:04;;;;;;;8.13;4.38;;;20.10;99.90;;;;;;5010636;28;20017;-72
2023/08/12 03:45:29;;;;;;;16.02;5.28;;;20.10;99.90;;;;;;5023733;28;20018;-72
2023/08/12 03:47:55;;;;;;;5.50;4.05;;;20.00;99.90;;;;;;5024018;28;20057;-72
2023/08/12 03:50:21;;;;;;;8.25;4.00;;;20.00;99.90;;;;;;5009747;28;20029;-72
2023/08/12 03:52:46;;;;;;;5.80;4.68;;;20.00;99.90;;;;;;5024547;28;20030;-72
2023/08/12 03:55:12;;;;;;;9.38;4.60;;;20.00;99.90;;;;;;5026458;28;20427;-72
2023/08/12 03:57:38;;;;;;;7.57;4.80;;;20.00;99.90;;;;;;5025008;28;20096;-72
2023/08/12 04:00:04;;;;;;;5.18;3.88;;;20.00;99.90;;;;;;5025862;28;20125;-72
2023/08/12 04:02:30;;;;;;;5.90;3.35;;;20.00;99.90;;;;;;5021665;28;20108;-72
2023/08/12 04:04:55;;;;;;;7.50;4.00;;;20.00;99.90;;;;;;5025216;28;20555;-72
2023/08/12 04:07:21;;;;;;;5.28;3.50;;;20.00;99.90;;;;;;5024040;28;20439;-72
2023/08/12 04:09:47;;;;;;;6.70;3.50;;;20.00;99.90;;;;;;5025671;28;20037;-72
2023/08/12 04:12:12;;;;;;;5.97;3.33;;;20.00;99.90;;;;;;5024633;28;20117;-72
2023/08/12 04:14:38;;;;;;;5.97;3.50;;;20.00;99.90;;;;;;5022465;28;20507;-72
2023/08/12 04:17:03;;;;;;;9.65;3.95;;;20.00;99.90;;;;;;5002639;28;20536;-72
2023/08/12 04:19:29;;;;;;;6.05;4.07;;;20.00;99.90;;;;;;5018398;28;20028;-72
2023/08/12 04:21:54;;;;;;;8.40;3.88;;;20.00;99.90;;;;;;5020802;28;20109;-72
2023/08/12 04:24:20;;;;;;;7.07;4.30;;;20.00;99.90;;;;;;5024217;28;20462;-72
2023/08/12 04:26:46;;;;;;;7.43;4.18;;;20.00;99.90;;;;;;5019767;28;20037;-73
2023/08/12 04:29:11;;;;;;;6.50;3.85;;;20.10;99.90;;;;;;5023844;28;20493;-73
2023/08/12 04:31:37;;;;;;;6.45;3.78;;;20.00;99.90;;;;;;5017938;28;20048;-74
2023/08/12 04:34:03;;;;;;;7.47;3.92;;;20.10;99.90;;;;;;5021825;28;21849;-73
2023/08/12 04:36:29;;;;;;;6.75;4.20;;;20.00;99.90;;;;;;5017354;28;20071;-73
2023/08/12 04:38:55;;;;;;;7.28;4.65;;;20.10;99.90;;;;;;5018009;28;20516;-73
2023/08/12 04:41:23;;;;;;;7.90;3.85;;;20.10;99.90;;;;;;5020007;28;20049;-72
2023/08/12 04:43:49;;;;;;;6.22;4.20;;;20.10;99.90;;;;;;5016476;28;21834;-72
2023/08/12 04:46:14;;;;;;;9.57;4.68;;;20.10;99.90;;;;;;5019227;28;20104;-72
2023/08/12 04:48:40;;;;;;;9.27;3.80;;;20.10;99.90;;;;;;5017313;28;20032;-72
2023/08/12 04:51:06;;;;;;;6.40;4.22;;;20.10;99.90;;;;;;5008232;28;20075;-70
2023/08/12 04:53:32;;;;;;;8.70;3.80;;;20.10;99.90;;;;;;5024719;28;20031;-71
2023/08/12 04:55:58;;;;;;;5.47;3.65;;;20.10;99.90;;;;;;5001867;28;20029;-70
2023/08/12 04:58:25;;;;;;;5.97;4.13;;;20.10;99.90;;;;;;5023038;28;20104;-71
2023/08/12 05:00:54;;;;;;;5.75;4.20;;;20.20;99.90;;;;;;5022030;28;20049;-70
2023/08/12 05:03:19;;;;;;;5.47;4.25;;;20.20;99.90;;;;;;5024261;28;20030;-70
2023/08/12 05:05:52;;;;;;;10.35;4.65;;;20.10;99.90;;;;;;5023502;28;20092;-70
2023/08/12 05:08:19;;;;;;;6.55;3.97;;;20.20;99.90;;;;;;5044271;23;20052;-75
2023/08/12 05:10:48;;;;;;;11.45;4.38;;;20.20;99.90;;;;;;5041384;28;20113;-75
2023/08/12 05:13:13;;;;;;;7.57;3.92;;;20.20;99.90;;;;;;5022434;28;20028;-76
2023/08/12 05:15:39;;;;;;;6.68;3.63;;;20.30;99.90;;;;;;5040489;28;20025;-76
2023/08/12 05:18:05;;;;;;;5.13;3.65;;;20.30;99.90;;;;;;5012715;28;20074;-75
2023/08/12 05:20:31;;;;;;;6.13;3.85;;;20.30;99.90;;;;;;5023631;28;20415;-76
2023/08/12 05:22:57;;;;;;;5.63;3.88;;;20.30;99.90;;;;;;5030491;28;20029;-77
2023/08/12 05:25:22;;;;;;;5.88;3.92;;;20.40;99.90;;;;;;5030629;28;20025;-75
2023/08/12 05:27:48;;;;;;;10.15;4.35;;;20.40;99.90;;;;;;5029595;28;20075;-75
2023/08/12 05:30:13;;;;;;;6.57;4.15;;;20.50;99.90;;;;;;5014809;28;20459;-73
2023/08/12 05:32:39;;;;;;;5.32;4.32;;;20.50;99.90;;;;;;5012175;28;20026;-73
2023/08/12 05:35:05;;;;;;;6.47;3.70;;;20.60;99.90;;;;;;5012526;28;20014;-73
2023/08/12 05:37:30;;;;;;;6.40;3.90;;;20.60;99.90;;;;;;5003808;28;20492;-73
2023/08/12 05:39:56;;;;;;;6.00;4.15;;;20.60;99.90;;;;;;5020438;28;20481;-73
2023/08/12 05:42:22;;;;;;;6.93;3.97;;;20.70;99.90;;;;;;5027470;28;20026;-73
2023/08/12 05:44:47;;;;;;;4.80;3.28;;;20.70;99.90;;;;;;5020840;28;20069;-72
2023/08/12 05:47:13;;;;;;;5.78;3.30;;;20.80;99.90;;;;;;5012039;28;20026;-72
2023/08/12 05:49:38;;;;;;;8.80;3.78;;;20.80;99.90;;;;;;4999857;28;20026;-73
2023/08/12 05:52:04;;;;;;;5.45;3.80;;;20.90;99.90;;;;;;5031597;28;20392;-73
2023/08/12 05:54:30;;;;;;;4.97;3.80;;;20.90;99.90;;;;;;5036835;28;20047;-72
2023/08/12 05:56:55;;;;;;;6.95;3.70;;;21.00;99.90;;;;;;5027177;28;20641;-72
2023/08/12 05:59:21;;;;;;;8.65;3.92;;;21.00;99.90;;;;;;5032059;28;20026;-72
2023/08/12 06:01:47;;;;;;;4.40;3.55;;;21.00;99.90;;;;;;5032061;28;20052;-72
2023/08/12 06:04:12;;;;;;;4.78;3.50;;;21.10;99.90;;;;;;5031802;28;20018;-72
2023/08/12 06:06:38;;;;;;;8.73;3.80;;;21.20;99.90;;;;;;5013749;28;20249;-72
2023/08/12 06:09:04;;;;;;;6.60;4.00;;;21.20;99.90;;;;;;5031655;28;20064;-72
2023/08/12 06:11:29;;;;;;;6.15;3.90;;;21.30;99.90;;;;;;5013367;28;20056;-72
2023/08/12 06:13:55;;;;;;;5.60;3.80;;;21.40;99.90;;;;;;5026633;28;20034;-73
2023/08/12 06:16:20;;;;;;;6.05;3.65;;;21.40;99.90;;;;;;5024991;28;20072;-72
2023/08/12 06:18:47;;;;;;;5.43;3.63;;;21.50;99.90;;;;;;5032858;28;20025;-72
2023/08/12 06:21:12;;;;;;;5.60;3.72;;;21.50;99.90;;;;;;5031919;28;20043;-72
2023/08/12 06:23:38;;;;;;;4.78;3.38;;;21.60;99.90;;;;;;5029531;28;20539;-72
2023/08/12 06:26:04;;;;;;;9.82;3.83;;;21.60;99.90;;;;;;5010326;28;20468;-72
2023/08/12 06:28:29;;;;;;;6.78;3.33;;;21.70;99.90;;;;;;5007471;28;20033;-73
2023/08/12 06:30:55;;;;;;;4.85;3.70;;;21.70;99.90;;;;;;5029083;28;20036;-72
2023/08/12 06:33:20;;;;;;;5.63;3.33;;;21.80;99.90;;;;;;5031457;28;20029;-72
2023/08/12 06:35:46;;;;;;;7.10;3.45;;;21.90;99.90;;;;;;5033803;28;20133;-72
2023/08/12 06:38:13;;;;;;;8.00;4.35;;;22.10;99.90;;;;;;5038548;28;20030;-73
2023/08/12 06:40:39;;;;;;;5.65;3.85;;;22.20;99.90;;;;;;5033267;28;20033;-73
2023/08/12 06:43:04;;;;;;;5.93;4.03;;;22.30;99.90;;;;;;5019837;28;20044;-73
2023/08/12 06:45:30;;;;;;;6.25;3.85;;;22.50;99.90;;;;;;5033735;28;20025;-72
2023/08/12 06:47:56;;;;;;;5.18;3.92;;;22.60;99.90;;;;;;5016403;28;20393;-72
2023/08/12 06:50:21;;;;;;;5.50;3.58;;;22.70;99.90;;;;;;5036545;28;20029;-73
2023/08/12 06:52:47;;;;;;;6.13;3.80;;;22.80;99.90;;;;;;5030477;28;20083;-73
2023/08/12 06:55:13;;;;;;;4.60;4.05;;;22.90;99.90;;;;;;5014201;28;20062;-73
2023/08/12 06:57:38;;;;;;;8.05;3.58;;;22.90;99.90;;;;;;5032123;28;20028;-73
2023/08/12 07:00:05;;;;;;;7.30;3.60;;;23.00;99.90;;;;;;5008576;28;20032;-73
2023/08/12 07:02:30;;;;;;;5.22;3.95;;;23.00;99.90;;;;;;5030153;28;20383;-73
2023/08/12 07:04:56;;;;;;;6.82;3.50;;;23.00;99.90;;;;;;5035783;28;20026;-72
2023/08/12 07:07:22;;;;;;;4.47;3.40;;;23.10;99.90;;;;;;5032610;28;20889;-72
2023/08/12 07:09:47;;;;;;;5.03;3.67;;;23.10;99.90;;;;;;5038792;28;20029;-73
2023/08/12 07:12:13;;;;;;;5.40;3.90;;;23.10;99.90;;;;;;5015958;28;20032;-72
2023/08/12 07:14:38;;;;;;;8.18;3.80;;;23.10;99.90;;;;;;5033999;28;20041;-73
2023/08/12 07:17:04;;;;;;;6.40;4.00;;;23.10;99.90;;;;;;5018651;28;20033;-72
2023/08/12 07:19:30;;;;;;;6.20;3.67;;;23.10;99.90;;;;;;5032655;28;20484;-72
2023/08/12 07:21:55;;;;;;;5.45;3.20;;;23.10;99.90;;;;;;5016373;28;20025;-73
2023/08/12 07:24:21;;;;;;;5.88;4.30;;;23.10;99.90;;;;;;5033743;28;20080;-72
2023/08/12 07:26:46;;;;;;;5.80;3.75;;;23.00;99.90;;;;;;5034147;28;20051;-73
2023/08/12 07:29:12;;;;;;;8.07;4.07;;;23.10;99.90;;;;;;5015912;28;20030;-73
2023/08/12 07:31:38;;;;;;;6.00;4.70;;;23.10;99.90;;;;;;5031478;28;20055;-72
2023/08/12 07:34:03;;;;;;;15.93;5.00;;;23.10;99.90;;;;;;5033000;28;20037;-74
2023/08/12 07:36:29;;;;;;;8.02;3.80;;;23.20;99.90;;;;;;5033348;28;20033;-73
2023/08/12 07:38:55;;;;;;;8.88;4.07;;;23.20;99.90;;;;;;5034416;28;20029;-74
2023/08/12 07:41:20;;;;;;;7.35;4.03;;;23.20;99.90;;;;;;5033914;28;20022;-73
2023/08/12 07:43:46;;;;;;;6.32;4.10;;;23.30;99.90;;;;;;5035286;28;20025;-73
2023/08/12 07:46:11;;;;;;;6.60;3.80;;;23.30;99.90;;;;;;5014761;28;20022;-73
2023/08/12 07:48:38;;;;;;;6.07;4.05;;;23.40;99.90;;;;;;5016256;28;20076;-74
2023/08/12 07:51:03;;;;;;;6.72;4.22;;;23.40;99.90;;;;;;5033321;28;20357;-74
2023/08/12 07:53:29;;;;;;;5.05;3.75;;;23.50;99.90;;;;;;5033223;28;20025;-73
2023/08/12 07:55:55;;;;;;;5.38;3.50;;;23.60;99.90;;;;;;5026575;28;20022;-74
2023/08/12 07:58:20;;;;;;;5.22;3.58;;;23.80;99.90;;;;;;5036339;28;20029;-75
2023/08/12 08:00:46;;;;;;;5.47;3.95;;;23.80;99.90;;;;;;5038810;28;20048;-73
2023/08/12 08:03:11;;;;;;;6.70;4.05;;;23.90;99.90;;;;;;5020646;28;20105;-72
2023/08/12 08:05:42;;;;;;;5.70;3.58;;;24.00;99.90;;;;;;5028270;28;20025;-73
2023/08/12 08:08:07;;;;;;;4.82;3.90;;;24.10;99.90;;;;;;5033848;28;20021;-73
2023/08/12 08:10:33;;;;;;;6.30;4.03;;;24.10;99.90;;;;;;5025979;28;20028;-73
2023/08/12 08:12:58;;;;;;;3.88;3.47;;;24.20;99.90;;;;;;5035621;28;20101;-72
2023/08/12 08:15:24;;;;;;;6.75;4.05;;;24.30;99.90;;;;;;5032190;28;20032;-72
2023/08/12 08:17:50;;;;;;;5.32;3.60;;;24.40;99.90;;;;;;5007895;28;20036;-72
2023/08/12 08:20:15;;;;;;;5.28;4.32;;;24.60;99.90;;;;;;5007617;28;20030;-73
2023/08/12 08:22:41;;;;;;;6.25;3.72;;;24.70;99.90;;;;;;5031097;28;20117;-72
2023/08/12 08:25:07;;;;;;;3.90;2.95;;;24.80;99.90;;;;;;5031559;28;20056;-73
2023/08/12 08:27:33;;;;;;;6.75;3.92;;;25.00;99.90;;;;;;5017375;28;20029;-72
2023/08/12 08:29:58;;;;;;;4.60;3.50;;;25.00;99.90;;;;;;5030368;28;20099;-72
2023/08/12 08:32:24;;;;;;;9.43;4.40;;;25.10;99.90;;;;;;5027988;28;20443;-73
2023/08/12 08:34:50;;;;;;;5.47;4.05;;;25.20;99.90;;;;;;5009950;28;20041;-72
2023/08/12 08:37:15;;;;;;;11.52;3.90;;;25.20;99.90;;;;;;5027805;28;20029;-73
2023/08/12 08:39:41;;;;;;;7.05;3.60;;;25.40;99.90;;;;;;5024570;28;20464;-73
2023/08/12 08:42:09;;;;;;;5.63;3.80;;;25.50;99.90;;;;;;5030545;28;20068;-73
2023/08/12 08:44:39;;;;;;;6.40;4.53;;;25.70;99.90;;;;;;5012190;28;20488;-73
2023/08/12 08:47:06;;;;;;;4.13;3.30;;;25.80;99.90;;;;;;5034143;28;20025;-73
2023/08/12 08:49:33;;;;;;;8.80;3.25;;;25.90;99.90;;;;;;5034489;28;20030;-72
2023/08/12 08:52:00;;;;;;;3.72;3.20;;;25.90;99.90;;;;;;5026803;28;20064;-72
2023/08/12 08:54:25;;;;;;;5.43;3.30;;;25.90;99.90;;;;;;5027276;28;20032;-73
2023/08/12 08:56:51;;;;;;;4.35;3.47;;;25.80;99.90;;;;;;5011359;28;20025;-73
2023/08/12 08:59:17;;;;;;;5.28;4.00;;;25.80;99.90;;;;;;5033954;28;20055;-73
2023/08/12 09:01:46;;;;;;;5.22;3.17;;;25.80;99.90;;;;;;5027730;28;20022;-73
2023/08/12 09:04:13;;;;;;;5.13;3.60;;;25.90;99.90;;;;;;5024350;28;20496;-73
2023/08/12 09:06:39;;;;;;;4.97;3.47;;;25.90;99.90;;;;;;5030735;28;20337;-73
2023/08/12 09:09:12;;;;;;;7.43;3.15;;;26.10;99.90;;;;;;5006751;28;20116;-73
2023/08/12 09:11:39;;;;;;;4.22;2.97;;;26.20;99.90;;;;;;5027559;28;20031;-72
2023/08/12 09:14:08;;;;;;;4.80;3.22;;;26.20;99.90;;;;;;5012714;28;20025;-73
2023/08/12 09:16:34;;;;;;;7.00;3.47;;;26.30;99.90;;;;;;5029047;28;20573;-73
2023/08/12 09:19:00;;;;;;;3.83;2.78;;;26.50;99.90;;;;;;5013302;28;20094;-73
2023/08/12 09:21:25;;;;;;;5.95;3.35;;;26.60;99.90;;;;;;5011442;28;20022;-72
2023/08/12 09:23:51;;;;;;;2.97;2.50;;;26.70;99.90;;;;;;5031065;28;20033;-72
2023/08/12 09:26:19;;;;;;;5.25;2.92;;;26.80;99.90;;;;;;5011603;28;20108;-72
2023/08/12 09:28:45;;;;;;;3.60;3.08;;;26.90;99.90;;;;;;5030607;28;20045;-73
2023/08/12 09:31:31;;;;;;;5.25;2.85;;;27.10;99.90;;;;;;5028473;28;20030;-73
2023/08/12 09:34:08;;;;;;;3.38;3.08;;;27.30;99.90;;;;;;5030156;28;20518;-73
2023/08/12 09:36:34;;;;;;;3.67;2.70;;;27.30;99.90;;;;;;5011745;28;20057;-73
2023/08/12 09:39:05;;;;;;;5.40;3.10;;;27.30;99.90;;;;;;5030352;28;20037;-73
2023/08/12 09:41:31;;;;;;;5.65;2.70;;;27.40;99.90;;;;;;5012201;28;20487;-73
2023/08/12 09:43:57;;;;;;;3.95;3.00;;;27.40;99.90;;;;;;5012693;28;20080;-72
2023/08/12 09:46:23;;;;;;;4.40;2.95;;;27.50;99.90;;;;;;5027105;28;20033;-73
2023/08/12 09:48:52;;;;;;;8.02;3.45;;;27.60;99.70;;;;;;5008579;28;20030;-72
2023/08/12 09:51:24;;;;;;;7.22;3.22;;;27.70;99.60;;;;;;5026149;28;20030;-73
2023/08/12 09:53:50;;;;;;;5.65;2.92;;;27.80;99.30;;;;;;5028153;28;20038;-73
2023/08/12 09:56:19;;;;;;;5.03;2.88;;;27.90;99.00;;;;;;5027905;28;20083;-73
2023/08/12 09:58:48;;;;;;;4.55;3.35;;;28.00;98.40;;;;;;5026412;28;20037;-73
2023/08/12 10:01:16;;;;;;;6.07;3.17;;;28.10;98.10;;;;;;5008226;28;20029;-74
2023/08/12 10:03:44;;;;;;;6.40;3.05;;;28.20;97.80;;;;;;5027154;28;20025;-73
2023/08/12 10:06:09;;;;;;;4.13;2.90;;;28.30;97.50;;;;;;5020284;28;20026;-73
2023/08/12 10:08:36;;;;;;;4.80;3.28;;;28.40;97.30;;;;;;5030431;28;20025;-72
2023/08/12 10:11:02;;;;;;;6.53;3.15;;;28.40;97.30;;;;;;5014379;28;20044;-73
2023/08/12 10:13:28;;;;;;;6.70;3.10;;;28.40;97.30;;;;;;5032354;28;20057;-71
2023/08/12 10:15:54;;;;;;;6.47;3.15;;;28.40;97.20;;;;;;5030546;28;20135;-73
2023/08/12 10:18:25;;;;;;;2.63;2.38;;;28.40;96.50;;;;;;5028521;28;20384;-73
2023/08/12 10:20:52;;;;;;;6.18;2.70;;;28.40;96.30;;;;;;5028535;28;20025;-72
2023/08/12 10:23:18;;;;;;;4.80;2.50;;;28.30;96.60;;;;;;5010917;28;20053;-72
2023/08/12 10:25:44;;;;;;;5.18;2.60;;;28.40;96.20;;;;;;5028975;28;20025;-73
2023/08/12 10:28:12;;;;;;;3.58;2.38;;;28.50;95.70;;;;;;5014258;28;20103;-73
2023/08/12 10:30:40;;;;;;;4.78;2.83;;;28.60;95.60;;;;;;5026686;28;20087;-73
2023/08/12 10:33:06;;;;;;;4.45;2.60;;;28.70;95.40;;;;;;5029159;28;20029;-73
2023/08/12 10:35:41;;;;;;;4.15;2.63;;;28.80;94.40;;;;;;5028938;28;20075;-73
2023/08/12 10:38:07;;;;;;;5.63;2.75;;;28.80;94.10;;;;;;5031560;28;20025;-73
2023/08/12 10:40:33;;;;;;;4.18;3.00;;;28.90;94.20;;;;;;5028315;28;20026;-73
2023/08/12 10:42:59;;;;;;;5.15;2.92;;;28.90;94.20;;;;;;5012117;28;20032;-73
2023/08/12 10:45:47;;;;;;;5.72;3.38;;;29.00;94.50;;;;;;5013681;28;20029;-72
2023/08/12 10:48:22;;;;;;;6.57;3.30;;;29.10;94.50;;;;;;5028111;28;20511;-74
2023/08/12 10:50:58;;;;;;;6.82;3.33;;;29.20;94.40;;;;;;5016188;28;20025;-74
2023/08/12 10:53:29;;;;;;;6.93;2.63;;;29.30;93.60;;;;;;5030232;28;20033;-73
2023/08/12 10:55:59;;;;;;;5.60;2.47;;;29.20;92.80;;;;;;5031342;28;20080;-74
2023/08/12 10:58:40;;;;;;;10.48;2.58;;;29.30;92.80;;;;;;5023673;28;20026;-72
2023/08/12 11:01:16;;;;;;;4.82;2.42;;;29.30;91.60;;;;;;5025174;28;20037;-73
2023/08/12 11:03:43;;;;;;;5.50;2.78;;;29.30;91.50;;;;;;5029289;28;20029;-73
2023/08/12 11:06:10;;;;;;;4.22;2.28;;;29.30;91.40;;;;;;5030258;28;20677;-74
2023/08/12 11:08:36;;;;;;;4.10;2.50;;;29.30;91.40;;;;;;5040641;23;20056;-73
2023/08/12 11:11:02;;;;;;;3.38;2.25;;;29.30;91.20;;;;;;5024839;28;20022;-73
2023/08/12 11:13:28;;;;;;;3.70;2.30;;;29.30;91.50;;;;;;5028388;28;20030;-73
2023/08/12 11:16:09;;;;;;;4.88;2.40;;;29.30;91.20;;;;;;5008125;28;20120;-79
2023/08/12 11:18:35;;;;;;;4.47;2.60;;;29.30;91.20;;;;;;5023913;28;20452;-72
2023/08/12 11:21:02;;;;;;;5.95;2.30;;;29.40;91.20;;;;;;5022161;28;20103;-73
2023/08/12 11:23:28;;;;;;;5.75;1.95;;;29.40;90.80;;;;;;5021997;28;20022;-73
2023/08/12 11:25:54;;;;;;;4.88;1.88;;;29.40;89.50;;;;;;5024228;28;20087;-72
2023/08/12 11:28:20;;;;;;;7.75;2.00;;;29.50;88.60;;;;;;5027106;28;20481;-71
2023/08/12 11:30:45;;;;;;;5.70;2.42;;;29.50;87.60;;;;;;5028365;28;20444;-73
2023/08/12 11:33:12;;;;;;;2.60;1.73;;;29.60;87.10;;;;;;5030129;28;20028;-73
2023/08/12 11:35:38;;;;;;;2.55;1.73;;;29.60;85.70;;;;;;5028040;28;20083;-73
2023/08/12 11:38:05;;;;;;;2.70;1.52;;;29.70;83.60;;;;;;5027646;28;20022;-72
2023/08/12 11:40:30;;;;;;;2.67;1.60;;;29.70;83.20;;;;;;5023947;28;20033;-73
2023/08/12 11:42:56;;;;;;;3.72;2.15;;;29.80;82.90;;;;;;5008858;28;20046;-73
2023/08/12 11:45:26;;;;;;;8.68;3.40;;;29.80;81.60;;;;;;5025433;28;20033;-73
2023/08/12 11:47:53;;;;;;;5.00;2.00;;;29.90;81.90;;;;;;5030218;28;20040;-72
2023/08/12 11:50:20;;;;;;;6.70;2.25;;;29.90;81.10;;;;;;5011591;28;20037;-72
2023/08/12 11:52:46;;;;;;;2.30;1.80;;;29.90;80.80;;;;;;5010607;28;20037;-71
2023/08/12 11:55:12;;;;;;;5.10;1.85;;;29.90;80.30;;;;;;5026528;28;20033;-73
2023/08/12 11:57:42;;;;;;;4.45;1.70;;;30.00;80.70;;;;;;5028038;28;20515;-73
2023/08/12 12:00:14;;;;;;;3.88;1.90;;;30.00;81.20;;;;;;5022207;28;20065;-72
2023/08/12 12:02:48;;;;;;;3.63;1.98;;;30.00;81.00;;;;;;5027317;28;20555;-73
2023/08/12 12:05:14;;;;;;;2.60;2.10;;;30.00;80.70;;;;;;5028705;28;20017;-72
2023/08/12 12:07:41;;;;;;;4.45;2.97;;;30.00;81.00;;;;;;5024933;28;20037;-73
2023/08/12 12:10:07;;;;;;;2.70;2.05;;;29.90;81.30;;;;;;5027022;28;20419;-73
2023/08/12 12:12:36;;;;;;;5.75;2.20;;;29.90;81.20;;;;;;5027204;28;20033;-72
2023/08/12 12:15:04;;;;;;;5.15;2.25;;;29.80;83.50;;;;;;5025153;28;20155;-73
2023/08/12 12:17:30;;;;;;;5.50;2.60;;;29.80;84.30;;;;;;5021365;28;20112;-73
2023/08/12 12:20:01;;;;;;;6.80;2.30;;;29.70;83.90;;;;;;5022924;28;20097;-74
2023/08/12 12:22:34;;;;;;;4.72;2.15;;;29.70;84.10;;;;;;5018882;28;20120;-72
2023/08/12 12:25:04;;;;;;;;;;;29.70;84.20;;;;;;5025930;28;20572;-73
2023/08/12 12:27:31;;;;;;;13.23;2.35;;;29.70;84.70;;;;;;5026831;28;19919;-75
2023/08/12 12:29:56;;;;;;;7.93;2.72;;;29.70;85.50;;;;;;5029882;28;20018;-75
2023/08/12 12:32:22;;;;;;;9.48;2.15;;;29.60;84.80;;;;;;5025550;28;20071;-73
2023/08/12 12:34:47;;;;;;;7.68;2.53;;;29.50;85.10;;;;;;5030076;28;20076;-73
2023/08/12 12:37:14;;;;;;;16.75;3.10;;;29.40;86.00;;;;;;5026644;28;20435;-78
2023/08/12 12:39:40;;;;;;;11.40;2.35;;;29.30;86.40;;;;;;5022825;28;20033;-72
2023/08/12 12:42:06;;;;;;;6.43;2.40;;;29.30;86.20;;;;;;5008379;28;20017;-75